Time;durP1;ratioP1;P1;durP2;ratioP2;P2;SDS_P1;SDS_P2;PMS_P1;PMS_P2;Temp;Humidity;BMP_temperature;BMP_pressure;BME280_temperature;BME280_humidity;BME280_pressure;Samples;Min_cycle;Max_cycle;Signal;HPM_P1;HPM_P2
2022/12/09 00:02:30;;;;;;;19.97;11.93;;;-1.10;99.90;;;;;;6203939;28;20428;-83
2022/12/09 00:05:31;;;;;;;20.63;12.47;;;-1.10;99.90;;;;;;6203714;28;20515;-83
2022/12/09 00:08:33;;;;;;;19.70;10.43;;;-1.10;99.90;;;;;;6203457;28;20046;-84
2022/12/09 00:11:35;;;;;;;15.67;10.33;;;-1.10;99.90;;;;;;6203213;28;20046;-84
2022/12/09 00:14:38;;;;;;;13.47;10.97;;;-1.20;99.90;;;;;;6209402;28;20062;-84
2022/12/09 00:17:39;;;;;;;16.27;10.97;;;-1.20;99.90;;;;;;6204435;28;20049;-84
2022/12/09 00:20:41;;;;;;;17.93;10.87;;;-1.20;99.90;;;;;;6204247;28;20489;-84
2022/12/09 00:23:43;;;;;;;16.27;10.30;;;-1.20;99.90;;;;;;6204323;28;20069;-84
2022/12/09 00:26:44;;;;;;;14.30;9.70;;;-1.30;99.90;;;;;;6202896;28;20046;-83
2022/12/09 00:29:47;;;;;;;18.30;10.53;;;-1.30;99.90;;;;;;6203459;28;20053;-82
2022/12/09 00:32:49;;;;;;;17.97;10.43;;;-1.40;99.90;;;;;;6222489;28;20052;-83
2022/12/09 00:35:51;;;;;;;19.83;10.77;;;-1.50;99.90;;;;;;6214857;28;20050;-83
2022/12/09 00:38:54;;;;;;;22.03;12.63;;;-1.50;99.90;;;;;;6202116;28;20042;-84
2022/12/09 00:41:55;;;;;;;17.20;10.83;;;-1.50;99.90;;;;;;6202145;28;20543;-84
2022/12/09 00:44:58;;;;;;;17.60;10.57;;;-1.40;99.90;;;;;;6203823;28;20488;-83
2022/12/09 00:48:00;;;;;;;14.57;9.27;;;-1.40;99.90;;;;;;6204083;28;20050;-82
2022/12/09 00:51:02;;;;;;;12.87;9.33;;;-1.40;99.90;;;;;;6204216;28;20477;-83
2022/12/09 00:54:04;;;;;;;14.37;9.87;;;-1.50;99.90;;;;;;6204535;28;20042;-82
2022/12/09 00:57:05;;;;;;;13.40;9.17;;;-1.60;99.90;;;;;;6204611;28;20054;-83
2022/12/09 01:00:10;;;;;;;17.13;9.30;;;-1.60;99.90;;;;;;6206953;28;20054;-83
2022/12/09 01:03:13;;;;;;;11.83;8.57;;;-1.70;99.90;;;;;;6227104;28;20052;-83
2022/12/09 01:06:17;;;;;;;14.03;9.13;;;-1.80;99.90;;;;;;6227687;28;20041;-82
2022/12/09 01:09:19;;;;;;;18.67;10.30;;;-1.80;99.90;;;;;;6229160;28;20057;-83
2022/12/09 01:12:21;;;;;;;18.23;9.33;;;-1.80;99.90;;;;;;6227158;28;20630;-83
2022/12/09 01:15:24;;;;;;;18.80;10.57;;;-1.80;99.90;;;;;;6225857;28;20498;-83
2022/12/09 01:18:25;;;;;;;17.17;11.03;;;-1.80;99.90;;;;;;6223352;28;20142;-82
2022/12/09 01:21:28;;;;;;;25.23;11.50;;;-1.80;99.90;;;;;;6222959;28;20042;-82
2022/12/09 01:24:29;;;;;;;12.27;9.27;;;-1.70;99.90;;;;;;6201381;28;20050;-82
2022/12/09 01:27:32;;;;;;;14.20;8.90;;;-1.80;99.90;;;;;;6198088;28;20049;-81
2022/12/09 01:30:35;;;;;;;16.17;9.63;;;-1.90;99.90;;;;;;6198732;28;20054;-82
2022/12/09 01:33:36;;;;;;;16.07;10.50;;;-1.90;99.90;;;;;;6208802;28;20084;-83
2022/12/09 01:36:38;;;;;;;21.53;10.23;;;-1.90;99.90;;;;;;6223402;28;20526;-82
2022/12/09 01:39:40;;;;;;;14.40;9.27;;;-1.90;99.90;;;;;;6222232;28;20042;-82
2022/12/09 01:42:42;;;;;;;15.83;9.63;;;-1.90;99.90;;;;;;6222625;28;20042;-83
2022/12/09 01:45:45;;;;;;;16.63;9.57;;;-2.00;99.90;;;;;;6225334;28;20045;-83
2022/12/09 01:48:47;;;;;;;15.00;9.20;;;-1.90;99.90;;;;;;6228148;28;20061;-83
2022/12/09 01:51:55;;;;;;;15.00;9.70;;;-1.90;99.90;;;;;;6227067;28;20041;-84
2022/12/09 01:54:57;;;;;;;14.53;8.90;;;-1.90;99.90;;;;;;6227266;28;20404;-83
2022/12/09 01:57:58;;;;;;;19.23;10.13;;;-1.90;99.90;;;;;;6225065;28;20069;-83
2022/12/09 02:01:02;;;;;;;13.70;8.73;;;-1.90;99.90;;;;;;6227380;28;20050;-83
2022/12/09 02:04:04;;;;;;;13.37;8.90;;;-1.90;99.90;;;;;;6227375;28;20046;-83
2022/12/09 02:07:09;;;;;;;17.60;9.73;;;-2.00;99.90;;;;;;6226213;28;20053;-84
2022/12/09 02:10:15;;;;;;;14.50;8.33;;;-2.00;99.90;;;;;;6226490;28;20057;-83
2022/12/09 02:13:25;;;;;;;14.90;9.60;;;-2.00;99.90;;;;;;6226288;28;20061;-83
2022/12/09 02:16:34;;;;;;;10.67;7.10;;;-2.00;99.90;;;;;;6226147;28;20057;-82
2022/12/09 02:19:51;;;;;;;16.97;8.53;;;-2.10;99.90;;;;;;6225985;28;20395;-84
2022/12/09 02:23:01;;;;;;;12.30;9.17;;;-2.20;99.90;;;;;;6247016;28;20042;-84
2022/12/09 02:26:14;;;;;;;18.63;9.77;;;-2.30;99.90;;;;;;6227814;28;20045;-84
2022/12/09 02:29:34;;;;;;;19.17;9.23;;;-2.40;99.90;;;;;;6227996;28;20074;-84
2022/12/09 02:32:50;;;;;;;15.37;9.20;;;-2.40;99.90;;;;;;6235436;28;20492;-83
2022/12/09 02:35:56;;;;;;;15.90;9.87;;;-2.40;99.90;;;;;;6225540;28;20046;-84
2022/12/09 02:38:59;;;;;;;15.33;9.63;;;-2.40;99.90;;;;;;6226289;28;20042;-83
2022/12/09 02:42:04;;;;;;;14.97;8.10;;;-2.50;99.90;;;;;;6226718;28;20052;-83
2022/12/09 02:45:09;;;;;;;20.87;10.00;;;-2.50;99.90;;;;;;6226248;28;20058;-83
2022/12/09 02:48:13;;;;;;;16.60;9.33;;;-2.50;99.90;;;;;;6227546;28;20049;-83
2022/12/09 02:51:19;;;;;;;12.67;9.83;;;-2.50;99.90;;;;;;6226350;28;20046;-83
2022/12/09 02:54:24;;;;;;;14.03;8.67;;;-2.60;99.90;;;;;;6226068;28;20057;-83
2022/12/09 02:57:27;;;;;;;15.80;10.33;;;-2.60;99.90;;;;;;6225708;28;20045;-83
2022/12/09 03:00:29;;;;;;;14.60;10.13;;;-2.60;99.90;;;;;;6227012;28;20057;-83
2022/12/09 03:03:34;;;;;;;14.47;9.03;;;-2.60;99.90;;;;;;6226873;28;20416;-83
2022/12/09 03:06:45;;;;;;;15.33;9.87;;;-2.60;99.90;;;;;;6227356;28;20058;-83
2022/12/09 03:09:51;;;;;;;12.63;9.53;;;-2.60;99.90;;;;;;6225920;28;20058;-82
2022/12/09 03:12:58;;;;;;;13.43;9.37;;;-2.60;99.90;;;;;;6227823;28;20050;-84
2022/12/09 03:16:05;;;;;;;18.25;9.23;;;-2.70;99.90;;;;;;6203089;28;20050;-84
2022/12/09 03:19:11;;;;;;;11.05;5.97;;;-2.80;99.90;;;;;;6203787;28;20051;-83
2022/12/09 03:22:19;;;;;;;12.97;9.27;;;-2.80;99.90;;;;;;6204017;28;20046;-83
2022/12/09 03:25:24;;;;;;;14.17;9.60;;;-2.70;99.90;;;;;;6203389;28;20055;-84
2022/12/09 03:28:30;;;;;;;15.73;9.70;;;-2.80;99.90;;;;;;6179849;28;20051;-84
2022/12/09 03:31:34;;;;;;;11.30;8.13;;;-2.70;99.90;;;;;;6204088;28;20061;-84
2022/12/09 03:34:39;;;;;;;17.10;10.17;;;-2.60;99.90;;;;;;6206731;28;20046;-84
2022/12/09 03:37:44;;;;;;;15.93;8.30;;;-2.60;99.90;;;;;;6203366;28;20130;-85
2022/12/09 03:40:51;;;;;;;13.90;9.30;;;-2.60;99.90;;;;;;6203746;28;20054;-84
2022/12/09 03:43:55;;;;;;;15.33;8.10;;;-2.60;99.90;;;;;;6202889;28;20042;-84
2022/12/09 03:46:58;;;;;;;12.53;8.07;;;-2.60;99.90;;;;;;6203393;28;20054;-84
2022/12/09 03:50:00;;;;;;;13.47;7.40;;;-2.60;99.90;;;;;;6202289;28;20053;-84
2022/12/09 03:53:07;;;;;;;16.53;9.07;;;-2.60;99.90;;;;;;6203082;28;20054;-84
2022/12/09 03:56:15;;;;;;;19.60;8.52;;;-2.50;99.90;;;;;;6202966;28;20050;-84
2022/12/09 03:59:16;;;;;;;7.93;7.00;;;-2.60;99.90;;;;;;6204518;28;20057;-83
2022/12/09 04:02:18;;;;;;;13.20;8.20;;;-2.60;99.90;;;;;;6221051;28;20046;-84
2022/12/09 04:05:20;;;;;;;13.73;9.47;;;-2.60;99.90;;;;;;6212560;28;20046;-83
2022/12/09 04:08:23;;;;;;;12.93;9.17;;;-2.60;99.90;;;;;;6204208;28;20046;-83
2022/12/09 04:11:25;;;;;;;15.03;8.37;;;-2.50;99.90;;;;;;6204108;28;20054;-83
2022/12/09 04:14:26;;;;;;;16.93;7.60;;;-2.50;99.90;;;;;;6202316;28;20062;-82
2022/12/09 04:17:28;;;;;;;11.57;8.27;;;-2.50;99.90;;;;;;6201915;28;20412;-83
2022/12/09 04:20:30;;;;;;;16.70;8.90;;;-2.50;99.90;;;;;;6203317;28;20046;-84
2022/12/09 04:23:33;;;;;;;10.53;8.00;;;-2.40;99.90;;;;;;6202452;28;20432;-84
2022/12/09 04:26:34;;;;;;;11.60;7.43;;;-2.50;99.90;;;;;;6201686;28;20045;-84
2022/12/09 04:29:36;;;;;;;12.13;7.43;;;-2.40;99.90;;;;;;6201525;28;20050;-84
2022/12/09 04:32:38;;;;;;;10.83;6.40;;;-2.50;99.90;;;;;;6202049;28;20057;-84
2022/12/09 04:35:39;;;;;;;10.47;6.27;;;-2.40;99.90;;;;;;6201353;28;20042;-83
2022/12/09 04:38:44;;;;;;;14.73;8.07;;;-2.50;99.90;;;;;;6200550;28;20050;-84
2022/12/09 04:41:45;;;;;;;9.30;7.13;;;-2.40;99.90;;;;;;6201322;28;20046;-84
2022/12/09 04:44:47;;;;;;;12.47;7.43;;;-2.50;99.90;;;;;;6202168;28;20054;-84
2022/12/09 04:47:49;;;;;;;10.80;8.43;;;-2.50;99.90;;;;;;6201313;28;20061;-84
2022/12/09 04:50:50;;;;;;;13.50;7.40;;;-2.40;99.90;;;;;;6201977;28;20050;-84
2022/12/09 04:53:53;;;;;;;12.03;8.37;;;-2.40;99.90;;;;;;6201502;28;20057;-84
2022/12/09 04:56:55;;;;;;;17.90;8.50;;;-2.40;99.90;;;;;;6207728;28;20053;-84
2022/12/09 04:59:57;;;;;;;13.23;7.53;;;-2.40;99.90;;;;;;6224879;28;20042;-84
2022/12/09 05:02:58;;;;;;;13.40;8.73;;;-2.40;99.90;;;;;;6225015;28;20057;-84
2022/12/09 05:06:02;;;;;;;14.50;7.50;;;-2.30;99.90;;;;;;6225640;28;20052;-84
2022/12/09 05:09:05;;;;;;;12.67;6.77;;;-2.30;99.90;;;;;;6226296;28;20053;-84
2022/12/09 05:12:07;;;;;;;14.77;8.17;;;-2.20;99.90;;;;;;6225712;28;20060;-83
2022/12/09 05:15:10;;;;;;;9.90;6.57;;;-2.10;99.90;;;;;;6225345;28;20053;-84
2022/12/09 05:18:11;;;;;;;12.27;8.93;;;-2.00;99.90;;;;;;6225469;28;20046;-84
2022/12/09 05:21:17;;;;;;;11.07;8.77;;;-1.80;99.90;;;;;;6231639;28;20050;-84
2022/12/09 05:24:20;;;;;;;11.40;8.00;;;-1.80;99.90;;;;;;6230786;28;20503;-84
2022/12/09 05:27:22;;;;;;;11.90;8.40;;;-1.70;99.90;;;;;;6230546;28;20037;-84
2022/12/09 05:30:24;;;;;;;13.60;9.03;;;-1.70;99.90;;;;;;6230614;28;20114;-83
2022/12/09 05:33:25;;;;;;;12.70;9.30;;;-1.60;99.90;;;;;;6230225;28;20050;-84
2022/12/09 05:36:27;;;;;;;19.00;9.80;;;-1.60;99.90;;;;;;6230702;28;20050;-84
2022/12/09 05:39:30;;;;;;;16.07;10.60;;;-1.50;99.90;;;;;;6230476;28;20041;-84
2022/12/09 05:42:32;;;;;;;19.30;10.30;;;-1.50;99.90;;;;;;6230860;28;20382;-83
2022/12/09 05:45:34;;;;;;;23.20;11.50;;;-1.40;99.90;;;;;;6230290;28;20420;-84
2022/12/09 05:48:36;;;;;;;17.57;12.53;;;-1.40;99.90;;;;;;6229512;28;20411;-84
2022/12/09 05:51:37;;;;;;;22.60;12.90;;;-1.30;99.90;;;;;;6229800;28;20053;-84
2022/12/09 05:54:41;;;;;;;26.93;11.57;;;-1.30;99.90;;;;;;6230016;28;20149;-84
2022/12/09 05:57:42;;;;;;;17.47;11.37;;;-1.30;99.90;;;;;;6229222;28;20411;-83
2022/12/09 06:00:44;;;;;;;16.30;11.50;;;-1.30;99.90;;;;;;6230039;28;20741;-84
2022/12/09 06:03:46;;;;;;;16.97;10.63;;;-1.30;99.90;;;;;;6229168;28;20050;-83
2022/12/09 06:06:48;;;;;;;17.70;11.97;;;-1.30;99.90;;;;;;6230216;28;20458;-84
2022/12/09 06:09:51;;;;;;;17.77;12.63;;;-1.30;99.90;;;;;;6228541;28;20046;-83
2022/12/09 06:12:54;;;;;;;18.17;13.30;;;-1.20;99.90;;;;;;6230034;28;20046;-84
2022/12/09 06:15:55;;;;;;;25.70;15.93;;;-1.20;99.90;;;;;;6229093;28;20054;-84
2022/12/09 06:18:57;;;;;;;21.07;13.00;;;-1.20;99.90;;;;;;6229130;28;20049;-84
2022/12/09 06:21:59;;;;;;;24.57;14.80;;;-1.20;99.90;;;;;;6228839;28;20054;-84
2022/12/09 06:25:02;;;;;;;22.30;12.87;;;-1.10;99.90;;;;;;6228402;28;20054;-84
2022/12/09 06:28:04;;;;;;;22.67;12.97;;;-1.10;99.90;;;;;;6229359;28;20572;-84
2022/12/09 06:31:06;;;;;;;19.73;12.10;;;-1.10;99.90;;;;;;6228135;28;20592;-83
2022/12/09 06:34:07;;;;;;;18.53;11.73;;;-1.10;99.90;;;;;;6236869;28;20081;-84
2022/12/09 06:37:09;;;;;;;21.57;13.07;;;-1.10;99.90;;;;;;6229330;28;20049;-83
2022/12/09 06:40:12;;;;;;;20.57;12.57;;;-1.00;99.90;;;;;;6230864;28;20050;-83
2022/12/09 06:43:14;;;;;;;22.97;14.97;;;-1.00;99.90;;;;;;6228194;28;20042;-83
2022/12/09 06:46:17;;;;;;;18.73;13.13;;;-1.00;99.90;;;;;;6228508;28;20050;-84
2022/12/09 06:49:19;;;;;;;18.80;14.80;;;-1.00;99.90;;;;;;6231351;28;20064;-83
2022/12/09 06:52:21;;;;;;;23.30;14.77;;;-0.90;99.90;;;;;;6232494;28;20058;-84
2022/12/09 06:55:24;;;;;;;32.17;13.30;;;-0.90;99.90;;;;;;6229997;28;20519;-83
2022/12/09 06:58:25;;;;;;;26.27;14.70;;;-0.90;99.90;;;;;;6229301;28;20529;-84
2022/12/09 07:01:27;;;;;;;25.80;13.70;;;-0.90;99.90;;;;;;6229299;28;20049;-84
2022/12/09 07:04:29;;;;;;;25.47;15.03;;;-0.90;99.90;;;;;;6229173;28;20050;-84
2022/12/09 07:07:30;;;;;;;23.73;15.47;;;-0.90;99.90;;;;;;6227978;28;20046;-85
2022/12/09 07:10:35;;;;;;;33.70;20.27;;;-0.80;99.90;;;;;;6229508;28;20046;-83
2022/12/09 07:13:36;;;;;;;24.27;16.00;;;-0.80;99.90;;;;;;6230441;28;20410;-84
2022/12/09 07:16:39;;;;;;;22.50;14.43;;;-0.80;99.90;;;;;;6228257;28;20130;-85
2022/12/09 07:19:40;;;;;;;24.70;14.50;;;-0.80;99.90;;;;;;6227846;28;20499;-83
2022/12/09 07:22:42;;;;;;;24.67;16.57;;;-0.80;99.90;;;;;;6229154;28;20422;-82
2022/12/09 07:25:54;;;;;;;23.13;14.17;;;-0.70;99.90;;;;;;6229110;28;20048;-83
2022/12/09 07:28:56;;;;;;;23.70;14.20;;;-0.70;99.90;;;;;;6229874;28;20072;-84
2022/12/09 07:31:57;;;;;;;24.93;14.10;;;-0.70;99.90;;;;;;6236324;28;20049;-84
2022/12/09 07:34:59;;;;;;;23.70;14.80;;;-0.60;99.90;;;;;;6231677;28;20423;-84
2022/12/09 07:38:01;;;;;;;20.63;13.07;;;-0.60;99.90;;;;;;6227935;28;20046;-84
2022/12/09 07:41:06;;;;;;;22.00;13.33;;;-0.60;99.90;;;;;;6228674;28;20057;-84
2022/12/09 07:44:09;;;;;;;26.57;14.17;;;-0.60;99.90;;;;;;6227922;28;20145;-84
2022/12/09 07:47:11;;;;;;;19.30;12.63;;;-0.60;99.90;;;;;;6229474;28;20392;-83
2022/12/09 07:50:13;;;;;;;31.47;15.07;;;-0.50;99.90;;;;;;6228402;28;20066;-83
2022/12/09 07:53:14;;;;;;;21.47;14.70;;;-0.50;99.90;;;;;;6228029;28;20053;-83
2022/12/09 07:56:21;;;;;;;21.83;15.23;;;-0.50;99.90;;;;;;6228041;28;20046;-83
2022/12/09 07:59:23;;;;;;;21.07;15.87;;;-0.40;99.90;;;;;;6227405;28;20074;-83
2022/12/09 08:02:24;;;;;;;29.83;15.13;;;-0.40;99.90;;;;;;6226510;28;20057;-83
2022/12/09 08:05:26;;;;;;;20.53;14.50;;;-0.40;99.90;;;;;;6229446;28;20068;-83
2022/12/09 08:08:28;;;;;;;26.23;16.03;;;-0.30;99.90;;;;;;6228872;28;20053;-82
2022/12/09 08:11:32;;;;;;;26.83;15.60;;;-0.30;99.90;;;;;;6228446;28;20045;-83
2022/12/09 08:14:34;;;;;;;20.17;15.37;;;-0.20;99.90;;;;;;6228125;28;20057;-83
2022/12/09 08:17:35;;;;;;;20.50;14.67;;;-0.20;99.90;;;;;;6226837;28;20057;-82
2022/12/09 08:20:38;;;;;;;20.27;12.77;;;-0.10;99.90;;;;;;6235679;28;20049;-82
2022/12/09 08:23:40;;;;;;;20.13;16.67;;;-0.10;99.90;;;;;;6194744;28;20077;-81
2022/12/09 08:26:43;;;;;;;20.80;13.67;;;0.00;99.90;;;;;;6218374;28;20061;-82
2022/12/09 08:29:45;;;;;;;20.07;14.70;;;0.10;99.90;;;;;;6227929;28;20725;-81
2022/12/09 08:32:47;;;;;;;26.53;16.00;;;0.20;99.90;;;;;;6222244;28;20057;-82
2022/12/09 08:35:49;;;;;;;20.20;13.17;;;0.30;99.90;;;;;;6202294;28;20679;-83
2022/12/09 08:38:50;;;;;;;21.00;13.33;;;0.30;99.90;;;;;;6219602;28;20057;-82
2022/12/09 08:41:53;;;;;;;17.53;14.30;;;0.50;99.90;;;;;;6202787;28;20061;-82
2022/12/09 08:44:55;;;;;;;23.70;15.07;;;0.60;99.90;;;;;;6203285;28;20050;-83
2022/12/09 08:47:57;;;;;;;22.00;15.40;;;0.80;99.90;;;;;;6203117;28;20046;-83
2022/12/09 08:50:59;;;;;;;23.98;16.10;;;1.00;99.90;;;;;;6202940;28;20064;-82
2022/12/09 08:54:01;;;;;;;20.05;14.15;;;1.20;99.90;;;;;;6202494;28;20052;-80
2022/12/09 08:57:04;;;;;;;23.50;14.85;;;1.50;99.90;;;;;;6202650;28;20051;-82
2022/12/09 09:00:07;;;;;;;22.00;15.63;;;1.60;99.90;;;;;;6226130;28;20054;-81
2022/12/09 09:03:09;;;;;;;19.25;12.70;;;1.80;99.90;;;;;;6225775;28;20056;-81
2022/12/09 09:06:11;;;;;;;19.08;12.98;;;2.00;99.90;;;;;;6225667;28;20041;-82
2022/12/09 09:09:14;;;;;;;21.40;12.65;;;2.20;99.90;;;;;;6227256;28;20503;-81
2022/12/09 09:12:17;;;;;;;20.67;12.63;;;2.30;99.90;;;;;;6226294;28;20419;-81
2022/12/09 09:15:18;;;;;;;110.68;76.25;;;2.40;99.90;;;;;;6227396;28;20069;-83
2022/12/09 09:18:20;;;;;;;32.38;24.13;;;2.40;99.90;;;;;;6226450;28;20061;-84
2022/12/09 09:21:25;;;;;;;28.33;23.30;;;2.40;99.90;;;;;;6226573;28;20046;-83
2022/12/09 09:24:26;;;;;;;20.38;15.65;;;2.40;99.90;;;;;;6228568;28;20053;-84
2022/12/09 09:27:29;;;;;;;26.65;18.95;;;2.30;99.90;;;;;;6228042;28;20046;-84
2022/12/09 09:30:31;;;;;;;24.83;17.80;;;2.30;99.90;;;;;;6228538;28;20050;-82
2022/12/09 09:33:33;;;;;;;18.30;13.00;;;2.40;99.90;;;;;;6228415;28;20049;-84
2022/12/09 09:36:35;;;;;;;20.65;13.70;;;2.40;99.90;;;;;;6228422;28;20610;-84
2022/12/09 09:39:37;;;;;;;19.40;12.50;;;2.50;99.90;;;;;;6227746;28;20411;-84
2022/12/09 09:42:47;;;;;;;24.33;12.95;;;2.50;99.90;;;;;;6227878;28;20503;-83
2022/12/09 09:45:50;;;;;;;20.45;13.10;;;2.50;99.90;;;;;;6228241;28;20093;-84
2022/12/09 09:48:52;;;;;;;18.73;13.23;;;2.50;99.90;;;;;;6229799;28;20659;-84
2022/12/09 09:51:54;;;;;;;17.90;13.07;;;2.60;99.90;;;;;;6229045;28;20419;-82
2022/12/09 09:54:56;;;;;;;28.88;18.60;;;2.60;99.90;;;;;;6229016;28;20107;-82
2022/12/09 09:58:06;;;;;;;21.05;13.27;;;2.60;99.90;;;;;;6229133;28;20038;-81
2022/12/09 10:01:11;;;;;;;23.75;17.20;;;2.70;99.90;;;;;;6228496;28;20054;-84
2022/12/09 10:04:20;;;;;;;50.30;45.53;;;2.70;99.90;;;;;;6229408;28;20061;-83
2022/12/09 10:07:28;;;;;;;20.73;14.13;;;2.80;99.90;;;;;;6231949;28;20042;-84
2022/12/09 10:10:41;;;;;;;22.85;14.57;;;2.80;99.90;;;;;;6233293;28;20050;-84
2022/12/09 10:13:55;;;;;;;18.65;13.52;;;2.80;99.90;;;;;;6232772;28;20046;-83
2022/12/09 10:17:06;;;;;;;20.15;11.98;;;2.80;99.90;;;;;;6233379;28;20531;-83
2022/12/09 10:20:12;;;;;;;18.58;14.00;;;2.80;99.90;;;;;;6232284;28;20049;-83
2022/12/09 10:23:16;;;;;;;22.65;16.60;;;2.70;99.90;;;;;;6229222;28;20135;-83
2022/12/09 10:26:22;;;;;;;21.77;14.05;;;2.70;99.90;;;;;;6229180;28;20069;-83
2022/12/09 10:29:42;;;;;;;20.50;15.57;;;2.60;99.90;;;;;;6229015;28;20046;-83
2022/12/09 10:32:44;;;;;;;21.80;15.38;;;2.60;99.90;;;;;;6229442;28;20115;-83
2022/12/09 10:35:46;;;;;;;25.38;16.98;;;2.60;99.90;;;;;;6229047;28;20046;-82
2022/12/09 10:38:48;;;;;;;19.83;14.77;;;2.70;99.90;;;;;;6228449;28;20060;-83
2022/12/09 10:45:13;;;;;;;20.92;16.67;;;2.90;99.90;;;;;;6231156;28;20054;-82
2022/12/09 10:48:28;;;;;;;18.55;15.50;;;3.00;99.90;;;;;;6231319;28;20052;-83
2022/12/09 10:51:34;;;;;;;21.92;16.50;;;3.00;99.90;;;;;;6230801;28;20057;-83
2022/12/09 10:54:39;;;;;;;19.63;14.63;;;3.10;99.90;;;;;;6230571;28;20049;-83
2022/12/09 10:57:41;;;;;;;20.25;14.70;;;3.10;99.90;;;;;;6230173;28;20436;-82
2022/12/09 11:00:58;;;;;;;18.75;15.63;;;3.10;99.90;;;;;;6248759;28;20064;-81
2022/12/09 11:04:11;;;;;;;21.92;14.25;;;3.20;99.90;;;;;;6243909;28;20482;-83
2022/12/09 11:07:16;;;;;;;22.33;13.93;;;3.30;99.90;;;;;;6231079;28;20491;-83
2022/12/09 11:10:19;;;;;;;21.30;14.93;;;3.20;99.90;;;;;;6230516;28;20046;-82
2022/12/09 11:13:33;;;;;;;20.80;15.05;;;3.20;99.90;;;;;;6230395;28;20042;-83
2022/12/09 11:16:36;;;;;;;19.48;15.68;;;3.20;99.90;;;;;;6229905;28;20428;-83
2022/12/09 11:19:39;;;;;;;21.38;16.50;;;3.20;99.90;;;;;;6230383;28;20065;-83
2022/12/09 11:22:42;;;;;;;23.10;17.40;;;3.30;99.90;;;;;;6230624;28;20049;-81
2022/12/09 11:25:53;;;;;;;22.13;15.18;;;3.30;99.90;;;;;;6229561;28;20045;-81
2022/12/09 11:29:04;;;;;;;20.77;15.57;;;3.40;99.90;;;;;;6228838;28;20045;-83
2022/12/09 11:32:13;;;;;;;17.38;14.50;;;3.50;99.90;;;;;;6230274;28;20053;-83
2022/12/09 11:35:17;;;;;;;24.27;16.40;;;3.50;99.90;;;;;;6226978;28;20057;-82
2022/12/09 11:38:28;;;;;;;21.83;15.50;;;3.60;99.90;;;;;;6227764;28;20500;-82
2022/12/09 11:44:56;;;;;;;23.10;16.35;;;3.70;99.90;;;;;;6231576;28;20054;-82
2022/12/09 11:48:06;;;;;;;30.75;20.67;;;3.70;99.90;;;;;;6227907;28;20450;-84
2022/12/09 11:51:25;;;;;;;23.83;16.08;;;3.60;99.90;;;;;;6228460;28;20419;-80
2022/12/09 11:54:32;;;;;;;32.65;17.17;;;3.70;99.90;;;;;;6227819;28;20061;-80
2022/12/09 11:57:38;;;;;;;24.50;16.13;;;3.60;99.90;;;;;;6224384;28;20503;-82
2022/12/09 12:00:45;;;;;;;27.02;16.77;;;3.60;99.90;;;;;;6207748;28;20061;-80
2022/12/09 12:03:53;;;;;;;25.48;16.42;;;3.60;99.90;;;;;;6199716;28;20061;-82
2022/12/09 12:07:01;;;;;;;25.00;17.48;;;3.60;99.90;;;;;;6200289;28;20053;-81
2022/12/09 12:10:09;;;;;;;24.65;15.13;;;3.60;99.90;;;;;;6199193;28;20050;-81
2022/12/09 12:13:19;;;;;;;24.23;16.35;;;3.50;99.90;;;;;;6201990;28;20050;-83
2022/12/09 12:16:34;;;;;;;27.02;14.50;;;3.40;99.90;;;;;;6201909;28;20500;-82
2022/12/09 12:19:39;;;;;;;23.17;14.77;;;3.40;99.90;;;;;;6204423;28;20042;-82
2022/12/09 12:23:13;;;;;;;24.17;15.13;;;3.40;99.90;;;;;;6204731;28;20069;-83
2022/12/09 12:26:19;;;;;;;22.48;15.73;;;3.40;99.90;;;;;;6210788;28;20049;-82
2022/12/09 12:29:30;;;;;;;18.77;14.02;;;3.50;99.90;;;;;;6225467;28;20045;-81
2022/12/09 12:32:44;;;;;;;25.25;16.65;;;3.50;99.90;;;;;;6225195;28;20054;-81
2022/12/09 12:35:57;;;;;;;19.50;13.02;;;3.50;99.90;;;;;;6224024;28;20048;-82
2022/12/09 12:39:13;;;;;;;24.92;17.20;;;3.60;99.90;;;;;;6223974;28;20077;-83
2022/12/09 12:42:29;;;;;;;21.75;14.50;;;3.60;99.90;;;;;;6224405;28;20054;-82
2022/12/09 12:49:19;;;;;;;20.48;14.70;;;3.80;99.90;;;;;;6200254;28;20042;-83
2022/12/09 12:52:37;;;;;;;23.42;14.95;;;3.80;99.90;;;;;;6202052;28;20054;-83
2022/12/09 12:55:53;;;;;;;24.30;15.43;;;3.80;99.90;;;;;;6202704;28;20050;-81
2022/12/09 12:59:05;;;;;;;21.15;13.77;;;3.90;99.90;;;;;;6223617;28;20045;-83
2022/12/09 13:02:22;;;;;;;21.08;14.27;;;3.90;99.90;;;;;;6221150;28;20064;-81
2022/12/09 13:05:25;;;;;;;20.85;14.73;;;3.90;99.90;;;;;;6223845;28;20113;-83
2022/12/09 13:08:36;;;;;;;18.35;14.10;;;3.90;99.90;;;;;;6224861;28;20069;-83
2022/12/09 13:11:52;;;;;;;21.42;15.75;;;3.90;99.90;;;;;;6224003;28;20534;-82
2022/12/09 13:14:55;;;;;;;22.23;15.07;;;3.80;99.90;;;;;;6224491;28;20054;-82
2022/12/09 13:17:56;;;;;;;22.85;16.00;;;3.80;99.90;;;;;;6223898;28;20061;-83
2022/12/09 13:21:00;;;;;;;24.38;15.57;;;3.80;99.90;;;;;;6223980;28;20443;-83
2022/12/09 13:24:16;;;;;;;21.05;15.23;;;3.80;99.90;;;;;;6224785;28;20085;-82
2022/12/09 13:27:26;;;;;;;22.25;14.85;;;3.80;99.90;;;;;;6223301;28;20172;-81
2022/12/09 13:30:35;;;;;;;22.63;15.18;;;3.80;99.90;;;;;;6224547;28;20046;-82
2022/12/09 13:33:49;;;;;;;22.65;15.82;;;3.70;99.90;;;;;;6223844;28;20053;-82
2022/12/09 13:36:51;;;;;;;21.70;16.63;;;3.70;99.90;;;;;;6223884;28;20465;-82
2022/12/09 13:39:58;;;;;;;23.65;16.83;;;3.70;99.90;;;;;;6222181;28;20053;-82
2022/12/09 13:43:09;;;;;;;23.75;15.65;;;3.80;99.90;;;;;;6229657;28;20492;-82
2022/12/09 13:46:21;;;;;;;28.23;15.80;;;3.80;99.90;;;;;;6230101;28;20054;-82
2022/12/09 13:49:24;;;;;;;20.67;16.08;;;3.80;99.90;;;;;;6228791;28;20049;-82
2022/12/09 13:52:47;;;;;;;25.42;17.58;;;3.80;99.90;;;;;;6229941;28;20060;-83
2022/12/09 13:55:54;;;;;;;22.25;17.08;;;3.80;99.90;;;;;;6229464;28;20058;-82
2022/12/09 13:59:24;;;;;;;24.48;15.75;;;3.80;99.90;;;;;;6229019;28;20047;-83
2022/12/09 14:02:37;;;;;;;27.48;17.02;;;3.80;99.90;;;;;;6229328;28;20044;-83
2022/12/09 14:05:39;;;;;;;23.55;15.13;;;3.80;99.90;;;;;;6228550;28;20129;-82
2022/12/09 14:08:48;;;;;;;23.42;16.83;;;3.80;99.90;;;;;;6234367;28;20060;-81
2022/12/09 14:11:52;;;;;;;28.77;17.95;;;3.80;99.90;;;;;;6240428;28;20531;-82
2022/12/09 14:14:55;;;;;;;21.23;15.43;;;3.80;99.90;;;;;;6228124;28;20045;-82
2022/12/09 14:18:00;;;;;;;26.63;16.30;;;3.80;99.90;;;;;;6225764;28;20038;-83
2022/12/09 14:21:22;;;;;;;22.60;16.13;;;3.80;99.90;;;;;;6227787;28;20042;-82
2022/12/09 14:24:35;;;;;;;22.63;16.65;;;3.80;99.90;;;;;;6228521;28;20050;-82
2022/12/09 14:27:38;;;;;;;23.33;15.65;;;3.80;99.90;;;;;;6230682;28;20050;-81
2022/12/09 14:30:48;;;;;;;22.30;15.88;;;3.80;99.90;;;;;;6248366;28;20060;-79
2022/12/09 14:33:49;;;;;;;31.20;18.73;;;3.80;99.90;;;;;;6240567;28;20052;-83
2022/12/09 14:36:58;;;;;;;27.80;19.35;;;3.80;99.90;;;;;;6230516;28;20482;-83
2022/12/09 14:40:15;;;;;;;24.88;17.25;;;3.80;99.90;;;;;;6228398;28;20053;-82
2022/12/09 14:43:47;;;;;;;26.75;18.63;;;3.70;99.90;;;;;;6226967;28;20050;-83
2022/12/09 14:46:50;;;;;;;27.95;17.27;;;3.70;99.90;;;;;;6229394;28;20069;-82
2022/12/09 14:49:53;;;;;;;27.70;18.52;;;3.70;99.90;;;;;;6227916;28;20056;-83
2022/12/09 14:52:59;;;;;;;23.15;17.20;;;3.70;99.90;;;;;;6265103;22;20041;-81
2022/12/09 14:56:01;;;;;;;25.60;18.08;;;3.70;99.90;;;;;;6257095;28;20199;-81
2022/12/09 14:59:07;;;;;;;26.17;17.30;;;3.70;99.90;;;;;;6240772;28;20053;-81
2022/12/09 15:02:20;;;;;;;27.30;18.35;;;3.70;99.90;;;;;;6229806;28;20057;-80
2022/12/09 15:05:22;;;;;;;39.65;21.40;;;3.70;99.90;;;;;;6229529;28;20053;-83
2022/12/09 15:08:32;;;;;;;30.55;18.80;;;3.70;99.90;;;;;;6228318;28;20494;-84
2022/12/09 15:11:35;;;;;;;32.67;18.98;;;3.60;99.90;;;;;;6227963;28;20049;-83
2022/12/09 15:14:40;;;;;;;30.75;19.75;;;3.70;99.90;;;;;;6228194;28;20041;-82
2022/12/09 15:17:44;;;;;;;28.27;20.73;;;3.70;99.90;;;;;;6229123;28;20419;-82
2022/12/09 15:20:50;;;;;;;104.72;93.60;;;3.70;99.90;;;;;;6230235;28;20676;-82
2022/12/09 15:23:52;;;;;;;28.60;19.90;;;3.70;99.90;;;;;;6228906;28;20072;-83
2022/12/09 15:26:58;;;;;;;28.40;18.42;;;3.60;99.90;;;;;;6227927;28;20056;-81
2022/12/09 15:30:20;;;;;;;30.20;17.23;;;3.60;99.90;;;;;;6221791;28;20512;-81
2022/12/09 15:33:21;;;;;;;29.58;19.90;;;3.60;99.90;;;;;;6204880;28;20052;-83
2022/12/09 15:36:27;;;;;;;26.88;19.40;;;3.60;99.90;;;;;;6205039;28;20046;-83
2022/12/09 15:39:31;;;;;;;25.98;18.63;;;3.60;99.90;;;;;;6204504;28;20038;-80
2022/12/09 15:42:35;;;;;;;28.42;19.15;;;3.60;99.90;;;;;;6204099;28;20424;-81
2022/12/09 15:45:42;;;;;;;26.23;18.08;;;3.60;99.90;;;;;;6204780;28;20057;-81
2022/12/09 15:48:49;;;;;;;28.48;18.38;;;3.60;99.90;;;;;;6204367;28;20518;-81
2022/12/09 15:51:53;;;;;;;28.65;20.45;;;3.60;99.90;;;;;;6203992;28;20047;-80
2022/12/09 15:54:57;;;;;;;24.23;18.13;;;3.60;99.90;;;;;;6204854;28;20467;-80
2022/12/09 15:58:04;;;;;;;26.45;19.55;;;3.60;99.90;;;;;;6195677;28;20650;-81